Time;durP1;ratioP1;P1;durP2;ratioP2;P2;SDS_P1;SDS_P2;PMS_P1;PMS_P2;Temp;Humidity;BMP_temperature;BMP_pressure;BME280_temperature;BME280_humidity;BME280_pressure;Samples;Min_cycle;Max_cycle;Signal;HPM_P1;HPM_P2
2022/07/07 00:01:09;;;;;;;0.00;0.00;;;;;;;18.24;62.82;102308.25;7362653;19;20089;-62
2022/07/07 00:03:35;;;;;;;0.00;0.00;;;;;;;18.21;62.53;102322.47;7360996;19;20019;-62
2022/07/07 00:06:01;;;;;;;0.00;0.00;;;;;;;18.19;62.87;102334.84;7359477;19;20018;-62
2022/07/07 00:08:26;;;;;;;0.00;0.00;;;;;;;18.11;62.73;102327.13;7361700;19;20025;-61
2022/07/07 00:10:52;;;;;;;0.00;0.00;;;;;;;18.01;62.37;102319.50;7359848;19;20074;-62
2022/07/07 00:13:18;;;;;;;0.00;0.00;;;;;;;18.08;62.62;102336.94;7360539;19;20014;-62
2022/07/07 00:15:45;;;;;;;0.00;0.00;;;;;;;18.02;62.96;102343.25;7362438;19;20469;-62
2022/07/07 00:18:14;;;;;;;0.00;0.00;;;;;;;18.01;62.51;102340.66;7360358;19;20035;-62
2022/07/07 00:20:39;;;;;;;0.00;0.00;;;;;;;17.94;63.08;102333.78;7361996;19;20017;-62
2022/07/07 00:23:05;;;;;;;0.00;0.00;;;;;;;17.86;63.28;102326.94;7357825;19;20010;-62
2022/07/07 00:25:30;;;;;;;0.00;0.00;;;;;;;17.85;63.59;102330.50;7360553;19;20007;-62
2022/07/07 00:27:56;;;;;;;0.00;0.00;;;;;;;17.82;63.42;102324.44;7360774;19;20796;-61
2022/07/07 00:30:21;;;;;;;0.00;0.00;;;;;;;17.76;63.58;102314.88;7362749;19;20010;-62
2022/07/07 00:32:47;;;;;;;0.00;0.00;;;;;;;17.64;64.15;102307.28;7360052;19;20006;-62
2022/07/07 00:35:13;;;;;;;0.00;0.00;;;;;;;17.72;64.25;102325.53;7361401;19;20002;-61
2022/07/07 00:37:38;;;;;;;0.00;0.00;;;;;;;17.69;64.15;102313.31;7361120;19;20014;-62
2022/07/07 00:40:05;;;;;;;0.00;0.00;;;;;;;17.67;64.61;102311.59;7361855;19;20007;-63
2022/07/07 00:42:30;;;;;;;0.00;0.00;;;;;;;17.62;64.50;102314.34;7360500;19;20006;-62
2022/07/07 00:44:56;;;;;;;0.00;0.00;;;;;;;17.60;64.59;102313.53;7364904;19;20041;-62
2022/07/07 00:47:21;;;;;;;0.00;0.00;;;;;;;17.57;64.07;102313.59;7366694;19;20392;-62
2022/07/07 00:49:47;;;;;;;0.00;0.00;;;;;;;17.54;64.02;102319.84;7367979;19;20030;-62
2022/07/07 00:52:13;;;;;;;0.00;0.00;;;;;;;17.52;64.23;102326.06;7366720;19;20021;-62
2022/07/07 00:54:38;;;;;;;0.00;0.00;;;;;;;17.41;64.60;102312.28;7366437;19;20017;-62
2022/07/07 00:57:05;;;;;;;0.00;0.00;;;;;;;17.36;64.52;102315.91;7367953;19;20006;-62
2022/07/07 00:59:34;;;;;;;0.00;0.00;;;;;;;17.40;64.87;102335.19;7366864;19;20007;-62
2022/07/07 01:02:01;;;;;;;0.00;0.00;;;;;;;17.35;65.15;102329.16;7365364;19;20014;-62
2022/07/07 01:04:26;;;;;;;0.03;0.03;;;;;;;17.36;64.96;102344.94;7367573;19;20058;-62
2022/07/07 01:06:52;;;;;;;0.10;0.10;;;;;;;17.36;64.65;102349.34;7365275;19;20960;-62
2022/07/07 01:09:18;;;;;;;0.08;0.08;;;;;;;17.34;65.03;102343.25;7366749;19;20038;-62
2022/07/07 01:11:45;;;;;;;0.00;0.00;;;;;;;17.31;64.91;102348.59;7365388;19;20014;-63
2022/07/07 01:14:10;;;;;;;0.10;0.10;;;;;;;17.29;64.95;102361.84;7367871;19;20090;-62
2022/07/07 01:16:36;;;;;;;0.00;0.00;;;;;;;17.27;64.81;102368.94;7363932;19;20102;-62
2022/07/07 01:19:01;;;;;;;0.00;0.00;;;;;;;17.25;65.34;102362.81;7367216;19;20029;-62
2022/07/07 01:21:31;;;;;;;0.00;0.00;;;;;;;17.24;65.21;102374.31;7364068;19;20018;-62
2022/07/07 01:23:56;;;;;;;0.00;0.00;;;;;;;17.23;65.12;102377.81;7364384;19;20044;-62
2022/07/07 01:26:22;;;;;;;0.00;0.00;;;;;;;17.22;65.00;102377.88;7366119;19;20010;-62
2022/07/07 01:28:47;;;;;;;0.00;0.00;;;;;;;17.21;64.84;102369.06;7367691;19;20017;-62
2022/07/07 01:31:13;;;;;;;0.00;0.00;;;;;;;17.20;64.88;102377.91;7365850;19;20436;-62
2022/07/07 01:33:39;;;;;;;0.00;0.00;;;;;;;17.18;64.54;102373.56;7363781;19;20022;-62
2022/07/07 01:36:04;;;;;;;0.08;0.08;;;;;;;17.16;64.76;102375.38;7366434;19;20002;-61
2022/07/07 01:38:30;;;;;;;0.00;0.00;;;;;;;17.12;64.96;102369.28;7367700;19;20025;-62
2022/07/07 01:40:55;;;;;;;0.00;0.00;;;;;;;17.10;64.79;102368.47;7363895;19;20033;-62
2022/07/07 01:43:20;;;;;;;0.00;0.00;;;;;;;17.06;64.94;102366.78;7366907;19;20011;-61
2022/07/07 01:45:46;;;;;;;0.00;0.00;;;;;;;17.05;64.59;102370.34;7367370;19;20860;-62
2022/07/07 01:48:11;;;;;;;0.00;0.00;;;;;;;17.01;64.97;102368.69;7366528;19;20006;-62
2022/07/07 01:50:37;;;;;;;0.00;0.00;;;;;;;16.99;64.70;102367.84;7363095;19;20002;-62
2022/07/07 01:53:02;;;;;;;0.00;0.00;;;;;;;16.96;64.70;102373.19;7362396;19;20037;-62
2022/07/07 01:55:27;;;;;;;0.00;0.00;;;;;;;16.93;64.68;102370.59;7365407;19;20015;-62
2022/07/07 01:57:53;;;;;;;0.03;0.03;;;;;;;16.89;64.97;102379.53;7356666;19;20030;-62
2022/07/07 02:00:18;;;;;;;0.00;0.00;;;;;;;16.82;65.03;102377.00;7364187;19;20041;-62
2022/07/07 02:02:43;;;;;;;0.00;0.00;;;;;;;16.83;64.84;102381.41;7364787;19;20021;-62
2022/07/07 02:05:09;;;;;;;0.00;0.00;;;;;;;16.82;64.88;102374.34;7359214;19;20025;-62
2022/07/07 02:07:35;;;;;;;0.00;0.00;;;;;;;16.79;65.32;102376.22;7364665;19;20002;-62
2022/07/07 02:10:01;;;;;;;0.00;0.00;;;;;;;16.77;65.47;102370.94;7362955;19;20033;-62
2022/07/07 02:12:26;;;;;;;0.00;0.00;;;;;;;16.73;65.39;102366.66;7365118;19;20006;-62
2022/07/07 02:14:51;;;;;;;0.00;0.00;;;;;;;16.71;65.43;102363.16;7362289;19;20015;-63
2022/07/07 02:17:17;;;;;;;0.10;0.10;;;;;;;16.67;65.64;102358.81;7365400;19;20022;-62
2022/07/07 02:19:43;;;;;;;0.00;0.00;;;;;;;16.64;65.78;102361.53;7364491;19;20565;-62
2022/07/07 02:22:09;;;;;;;0.00;0.00;;;;;;;16.61;65.85;102366.88;7361889;19;20021;-62
2022/07/07 02:24:34;;;;;;;0.00;0.00;;;;;;;16.60;65.61;102367.78;7361202;19;20078;-62
2022/07/07 02:27:00;;;;;;;0.00;0.00;;;;;;;16.58;65.89;102374.88;7363476;19;20018;-62
2022/07/07 02:29:25;;;;;;;0.00;0.00;;;;;;;16.55;66.41;102382.84;7365732;19;20039;-62
2022/07/07 02:31:50;;;;;;;0.00;0.00;;;;;;;16.55;66.30;102391.63;7362069;19;20014;-62
2022/07/07 02:34:16;;;;;;;0.00;0.00;;;;;;;16.55;66.18;102409.22;7362418;19;20019;-61
2022/07/07 02:36:41;;;;;;;0.05;0.05;;;;;;;16.56;66.36;102426.75;7357791;19;20105;-62
2022/07/07 02:39:07;;;;;;;0.00;0.00;;;;;;;16.57;66.93;102423.22;7365093;19;20026;-62
2022/07/07 02:41:32;;;;;;;0.00;0.00;;;;;;;16.59;66.78;102437.25;7362088;19;20014;-61
2022/07/07 02:43:57;;;;;;;0.00;0.00;;;;;;;16.63;66.82;102438.94;7364626;19;20018;-62
2022/07/07 02:46:23;;;;;;;0.00;0.00;;;;;;;16.66;66.82;102440.63;7361475;19;20014;-61
2022/07/07 02:48:48;;;;;;;0.05;0.05;;;;;;;16.70;67.01;102440.56;7364596;19;20014;-62
2022/07/07 02:51:14;;;;;;;0.00;0.00;;;;;;;16.67;66.37;102419.50;7363698;19;20708;-62
2022/07/07 02:53:39;;;;;;;0.00;0.00;;;;;;;16.77;66.46;102426.34;7362245;19;20032;-62
2022/07/07 02:56:05;;;;;;;0.00;0.00;;;;;;;16.81;66.84;102429.81;7360231;19;20026;-62
2022/07/07 02:58:31;;;;;;;0.10;0.10;;;;;;;16.82;66.57;102440.31;7364276;19;20007;-62
2022/07/07 03:00:57;;;;;;;0.00;0.00;;;;;;;16.89;66.51;102437.56;7360013;19;20010;-62
2022/07/07 03:03:22;;;;;;;0.00;0.00;;;;;;;16.79;66.57;102424.56;7350481;19;20006;-62
2022/07/07 03:05:48;;;;;;;0.00;0.00;;;;;;;16.97;66.51;102438.25;7359546;19;20629;-61
2022/07/07 03:08:13;;;;;;;0.05;0.05;;;;;;;17.00;66.64;102444.34;7358841;19;20052;-62
2022/07/07 03:10:39;;;;;;;0.00;0.00;;;;;;;17.04;66.52;102439.88;7359424;19;20018;-62
2022/07/07 03:13:04;;;;;;;0.00;0.00;;;;;;;17.08;66.42;102444.16;7364208;19;20010;-62
2022/07/07 03:15:30;;;;;;;0.00;0.00;;;;;;;17.10;66.78;102445.88;7363774;19;20835;-62
2022/07/07 03:17:56;;;;;;;0.00;0.00;;;;;;;17.14;66.66;102445.84;7360411;19;20014;-62
2022/07/07 03:20:21;;;;;;;0.08;0.08;;;;;;;17.15;66.62;102448.44;7353161;19;20022;-61
2022/07/07 03:22:47;;;;;;;0.00;0.00;;;;;;;17.22;66.25;102450.00;7364608;19;20025;-61
2022/07/07 03:25:12;;;;;;;0.00;0.00;;;;;;;17.20;66.48;102443.91;7359367;19;20441;-62
2022/07/07 03:27:38;;;;;;;0.00;0.00;;;;;;;17.28;66.36;102452.50;7363841;19;20466;-62
2022/07/07 03:30:06;;;;;;;0.00;0.00;;;;;;;17.32;65.74;102445.41;7363482;19;20433;-61
2022/07/07 03:32:31;;;;;;;0.00;0.00;;;;;;;17.34;65.92;102438.31;7363940;19;20014;-62
2022/07/07 03:34:57;;;;;;;0.00;0.00;;;;;;;17.34;65.90;102433.91;7362910;19;20408;-62
2022/07/07 03:37:24;;;;;;;0.00;0.00;;;;;;;17.35;66.15;102424.22;7365069;19;20014;-63
2022/07/07 03:39:49;;;;;;;0.00;0.00;;;;;;;17.28;65.79;102414.69;7363625;19;20014;-61
2022/07/07 03:42:14;;;;;;;0.00;0.00;;;;;;;17.36;65.68;102420.66;7364554;19;20003;-62
2022/07/07 03:44:40;;;;;;;0.00;0.00;;;;;;;17.35;65.82;102430.34;7362010;19;20014;-62
2022/07/07 03:47:05;;;;;;;0.00;0.00;;;;;;;17.26;65.76;102408.56;7364850;19;20365;-62
2022/07/07 03:49:31;;;;;;;0.00;0.00;;;;;;;17.34;65.90;102423.34;7363106;19;20009;-62
2022/07/07 03:51:57;;;;;;;0.00;0.00;;;;;;;17.34;66.16;102439.19;7364941;19;20011;-62
2022/07/07 03:54:22;;;;;;;0.00;0.00;;;;;;;17.35;66.19;102446.19;7364422;19;20074;-61
2022/07/07 03:56:48;;;;;;;0.00;0.00;;;;;;;17.35;65.88;102451.47;7363887;19;20956;-62
2022/07/07 03:59:13;;;;;;;0.00;0.00;;;;;;;17.38;66.37;102456.69;7363307;19;20067;-62
2022/07/07 04:01:44;;;;;;;0.00;0.00;;;;;;;17.36;65.95;102458.50;7362512;19;20014;-62
2022/07/07 04:04:10;;;;;;;0.00;0.00;;;;;;;17.40;65.88;102469.00;7360562;19;20470;-61
2022/07/07 04:06:35;;;;;;;0.08;0.08;;;;;;;17.40;66.14;102471.63;7362746;19;20021;-62
2022/07/07 04:09:01;;;;;;;0.00;0.00;;;;;;;17.42;66.07;102461.91;7360198;19;20019;-62
2022/07/07 04:11:26;;;;;;;0.00;0.00;;;;;;;17.42;65.51;102467.19;7364200;19;20729;-61
2022/07/07 04:13:52;;;;;;;0.00;0.00;;;;;;;17.41;65.43;102466.31;7361560;19;20010;-62
2022/07/07 04:16:17;;;;;;;0.00;0.00;;;;;;;17.40;65.91;102469.88;7363889;19;20087;-62
2022/07/07 04:18:42;;;;;;;0.00;0.00;;;;;;;17.36;65.92;102469.06;7361120;19;20018;-62
2022/07/07 04:21:08;;;;;;;0.10;0.10;;;;;;;17.37;65.96;102475.19;7370685;19;20017;-61
2022/07/07 04:23:33;;;;;;;0.00;0.00;;;;;;;17.29;65.97;102467.47;7367341;19;20429;-62
2022/07/07 04:25:59;;;;;;;0.00;0.00;;;;;;;17.30;65.90;102473.63;7370245;19;20015;-62
2022/07/07 04:28:24;;;;;;;0.00;0.00;;;;;;;17.35;65.68;102477.03;7368161;19;20006;-62
2022/07/07 04:30:50;;;;;;;0.00;0.00;;;;;;;17.37;65.93;102477.84;7370107;19;20006;-62
2022/07/07 04:33:15;;;;;;;0.00;0.00;;;;;;;17.37;65.59;102481.34;7369722;19;20043;-61
2022/07/07 04:35:41;;;;;;;0.00;0.00;;;;;;;17.37;65.89;102491.91;7367612;19;20013;-62
2022/07/07 04:38:06;;;;;;;0.00;0.00;;;;;;;17.38;66.06;102495.41;7367688;19;21877;-62
2022/07/07 04:40:31;;;;;;;0.00;0.00;;;;;;;17.38;65.81;102490.13;7370645;19;20018;-62
2022/07/07 04:42:57;;;;;;;0.10;0.10;;;;;;;17.40;65.84;102504.19;7367633;19;20014;-61
2022/07/07 04:45:22;;;;;;;0.00;0.00;;;;;;;17.42;65.93;102498.88;7368127;19;20014;-62
2022/07/07 04:47:48;;;;;;;0.00;0.00;;;;;;;17.43;65.72;102496.19;7368622;19;20030;-62
2022/07/07 04:50:13;;;;;;;0.00;0.00;;;;;;;17.45;65.83;102493.53;7361656;19;20010;-62
2022/07/07 04:52:39;;;;;;;0.00;0.00;;;;;;;17.43;65.47;102496.19;7367517;19;20023;-62
2022/07/07 04:55:06;;;;;;;0.05;0.05;;;;;;;17.46;65.74;102500.53;7368669;19;20014;-62
2022/07/07 04:57:31;;;;;;;0.00;0.00;;;;;;;17.48;65.36;102514.56;7366199;19;20355;-62
2022/07/07 04:59:57;;;;;;;0.10;0.10;;;;;;;17.47;65.52;102507.56;7366495;19;20013;-62
2022/07/07 05:02:22;;;;;;;0.10;0.10;;;;;;;17.47;65.27;102499.63;7369768;19;20539;-62
2022/07/07 05:04:51;;;;;;;0.00;0.00;;;;;;;17.43;65.17;102501.47;7365951;19;20018;-62
2022/07/07 05:07:17;;;;;;;0.00;0.00;;;;;;;17.49;65.25;102511.06;7368942;19;20003;-61
2022/07/07 05:09:43;;;;;;;0.00;0.00;;;;;;;17.49;65.13;102522.47;7368010;19;20006;-61
2022/07/07 05:12:09;;;;;;;0.10;0.10;;;;;;;17.44;65.32;102519.06;7368297;19;20022;-62
2022/07/07 05:14:34;;;;;;;0.08;0.08;;;;;;;17.51;65.55;102533.88;7367490;19;20038;-62
2022/07/07 05:17:00;;;;;;;0.00;0.00;;;;;;;17.51;65.53;102533.88;7366363;19;20340;-62
2022/07/07 05:19:26;;;;;;;0.10;0.10;;;;;;;17.49;65.32;102527.78;7366971;19;20021;-61
2022/07/07 05:21:51;;;;;;;0.10;0.10;;;;;;;17.53;65.33;102539.97;7367775;19;20011;-63
2022/07/07 05:24:17;;;;;;;0.08;0.08;;;;;;;17.55;65.23;102537.31;7363848;19;20054;-62
2022/07/07 05:26:42;;;;;;;0.05;0.05;;;;;;;17.58;65.33;102531.94;7366126;19;20376;-62
2022/07/07 05:29:07;;;;;;;0.00;0.00;;;;;;;17.60;65.23;102546.00;7366418;19;20002;-62
2022/07/07 05:31:33;;;;;;;0.00;0.00;;;;;;;17.63;65.05;102543.28;7365404;19;20078;-61
2022/07/07 05:33:58;;;;;;;0.10;0.10;;;;;;;17.65;64.74;102544.13;7368595;19;20010;-62
2022/07/07 05:36:24;;;;;;;0.00;0.00;;;;;;;17.67;64.85;102552.88;7364378;19;20636;-62
2022/07/07 05:38:50;;;;;;;0.10;0.10;;;;;;;17.61;64.91;102531.91;7367062;19;20010;-62
2022/07/07 05:41:16;;;;;;;0.00;0.00;;;;;;;17.71;64.89;102544.00;7366136;19;20007;-61
2022/07/07 05:43:41;;;;;;;0.10;0.10;;;;;;;17.72;64.63;102545.72;7366949;19;20493;-62
2022/07/07 05:46:07;;;;;;;0.00;0.00;;;;;;;17.74;64.47;102543.97;7365147;19;20347;-62
2022/07/07 05:48:32;;;;;;;0.00;0.00;;;;;;;17.79;64.59;102546.47;7366750;19;21054;-62
2022/07/07 05:50:57;;;;;;;0.10;0.10;;;;;;;17.81;64.45;102545.53;7366228;19;20012;-62
2022/07/07 05:53:23;;;;;;;0.08;0.08;;;;;;;17.84;64.14;102540.19;7368031;19;20021;-62
2022/07/07 05:55:49;;;;;;;0.10;0.10;;;;;;;17.86;64.31;102538.38;7365948;19;20025;-62
2022/07/07 05:58:15;;;;;;;0.00;0.00;;;;;;;17.89;64.41;102522.47;7358880;19;20107;-62
2022/07/07 06:00:40;;;;;;;0.00;0.00;;;;;;;17.96;64.55;102520.53;7363876;19;20416;-62
2022/07/07 06:03:05;;;;;;;0.00;0.00;;;;;;;18.01;64.29;102520.41;7366350;19;20006;-62
2022/07/07 06:05:31;;;;;;;0.00;0.00;;;;;;;18.06;63.99;102516.75;7362541;19;20018;-62
2022/07/07 06:07:56;;;;;;;0.00;0.00;;;;;;;18.10;64.50;102520.19;7365944;19;20046;-62
2022/07/07 06:10:22;;;;;;;0.00;0.00;;;;;;;18.15;63.90;102526.22;7364339;19;20020;-62
2022/07/07 06:12:48;;;;;;;0.00;0.00;;;;;;;18.21;64.07;102534.00;7365325;19;20007;-62
2022/07/07 06:15:14;;;;;;;0.00;0.00;;;;;;;18.14;63.80;102521.81;7365878;19;20637;-61
2022/07/07 06:17:40;;;;;;;0.00;0.00;;;;;;;18.29;63.41;102552.31;7365998;19;20094;-62
2022/07/07 06:20:06;;;;;;;0.05;0.05;;;;;;;18.24;62.82;102549.78;7366417;19;20042;-62
2022/07/07 06:22:32;;;;;;;0.00;0.00;;;;;;;18.34;63.29;102556.56;7364880;19;20023;-62
2022/07/07 06:24:58;;;;;;;0.00;0.00;;;;;;;18.28;62.93;102545.28;7365727;19;20014;-62
2022/07/07 06:27:23;;;;;;;0.00;0.00;;;;;;;18.40;63.03;102561.72;7361762;19;21676;-62
2022/07/07 06:29:49;;;;;;;0.10;0.10;;;;;;;18.43;62.80;102560.75;7364146;19;20364;-62
2022/07/07 06:32:15;;;;;;;0.00;0.00;;;;;;;18.49;62.84;102565.03;7361994;19;20030;-62
2022/07/07 06:34:41;;;;;;;0.00;0.00;;;;;;;18.52;62.49;102576.41;7362552;19;20023;-62
2022/07/07 06:37:06;;;;;;;0.00;0.00;;;;;;;18.58;62.11;102585.94;7353979;19;20366;-62
2022/07/07 06:39:31;;;;;;;0.08;0.08;;;;;;;18.59;62.29;102583.25;7351754;19;20029;-61
2022/07/07 06:41:57;;;;;;;0.00;0.00;;;;;;;18.65;62.05;102595.44;7358634;19;20660;-62
2022/07/07 06:44:22;;;;;;;0.10;0.10;;;;;;;18.66;61.79;102592.78;7364368;19;20037;-62
2022/07/07 06:46:48;;;;;;;0.00;0.00;;;;;;;18.70;61.77;102605.97;7362672;19;20014;-62
2022/07/07 06:49:13;;;;;;;0.00;0.00;;;;;;;18.71;61.52;102613.88;7363595;19;20348;-61
2022/07/07 06:51:39;;;;;;;0.08;0.08;;;;;;;18.61;61.58;102599.13;7363515;19;20352;-62
2022/07/07 06:54:05;;;;;;;0.10;0.10;;;;;;;18.73;61.51;102612.03;7365975;19;20048;-61
2022/07/07 06:56:30;;;;;;;0.03;0.03;;;;;;;18.74;61.19;102597.91;7360822;19;20011;-62
2022/07/07 06:58:56;;;;;;;0.00;0.00;;;;;;;18.72;60.80;102598.88;7362605;19;20114;-62
2022/07/07 07:01:21;;;;;;;0.00;0.00;;;;;;;18.76;61.37;102598.75;7364581;19;20014;-62
2022/07/07 07:03:46;;;;;;;0.10;0.10;;;;;;;18.80;60.94;102608.31;7363384;19;20018;-62
2022/07/07 07:06:12;;;;;;;0.00;0.00;;;;;;;18.83;61.33;102608.25;7365613;19;20041;-62
2022/07/07 07:08:37;;;;;;;0.10;0.10;;;;;;;18.81;60.96;102596.84;7352095;19;20103;-62
2022/07/07 07:11:04;;;;;;;0.08;0.08;;;;;;;18.80;60.68;102592.44;7358787;19;20010;-62
2022/07/07 07:13:30;;;;;;;0.00;0.00;;;;;;;18.84;60.81;102603.81;7362374;19;20025;-62
2022/07/07 07:15:55;;;;;;;0.00;0.00;;;;;;;18.97;61.21;102631.72;7365372;19;20011;-62
2022/07/07 07:18:21;;;;;;;0.03;0.03;;;;;;;18.94;61.05;102621.19;7364789;19;20472;-62
2022/07/07 07:20:46;;;;;;;0.00;0.00;;;;;;;19.04;61.23;102637.69;7360970;19;20011;-62
2022/07/07 07:23:11;;;;;;;0.00;0.00;;;;;;;19.10;60.99;102642.81;7365998;19;20466;-62
2022/07/07 07:25:37;;;;;;;0.10;0.10;;;;;;;19.16;61.04;102642.69;7362315;19;20033;-62
2022/07/07 07:28:02;;;;;;;0.00;0.00;;;;;;;19.21;61.06;102640.78;7365007;19;20086;-62
2022/07/07 07:30:28;;;;;;;0.00;0.00;;;;;;;19.31;60.85;102646.66;7362569;19;20014;-63
2022/07/07 07:32:53;;;;;;;0.00;0.00;;;;;;;19.40;60.72;102641.97;7364654;19;20011;-63
2022/07/07 07:35:19;;;;;;;0.08;0.08;;;;;;;19.51;60.24;102664.63;7364536;19;20074;-62
2022/07/07 07:37:44;;;;;;;0.00;0.00;;;;;;;19.49;60.07;102639.97;7362205;19;20011;-62
2022/07/07 07:40:11;;;;;;;0.08;0.08;;;;;;;19.67;59.21;102656.25;7364413;19;20025;-61
2022/07/07 07:42:38;;;;;;;0.10;0.10;;;;;;;19.72;59.31;102656.09;7365284;19;20011;-62
2022/07/07 07:45:10;;;;;;;0.10;0.10;;;;;;;19.74;58.97;102656.06;7363413;19;20053;-62
2022/07/07 07:47:46;;;;;;;0.00;0.00;;;;;;;19.80;59.83;102655.88;7363264;19;20045;-62
2022/07/07 07:50:14;;;;;;;0.10;0.10;;;;;;;19.76;59.04;102655.06;7364320;19;20021;-62
2022/07/07 07:52:41;;;;;;;0.00;0.00;;;;;;;19.76;59.13;102655.06;7362534;19;20010;-62
2022/07/07 07:55:09;;;;;;;0.00;0.00;;;;;;;19.78;59.23;102655.06;7361335;19;20521;-61
2022/07/07 07:57:35;;;;;;;0.00;0.00;;;;;;;19.71;58.93;102643.75;7361743;19;20033;-62
2022/07/07 08:00:00;;;;;;;0.00;0.00;;;;;;;19.82;59.06;102665.53;7364385;19;25688;-62
2022/07/07 08:02:26;;;;;;;0.00;0.00;;;;;;;19.74;58.97;102640.16;7363458;19;20014;-62
2022/07/07 08:04:51;;;;;;;0.00;0.00;;;;;;;19.83;59.23;102672.56;7364098;19;20035;-62
2022/07/07 08:07:17;;;;;;;0.00;0.00;;;;;;;19.77;59.24;102650.63;7364165;19;20014;-62
2022/07/07 08:09:43;;;;;;;0.10;0.10;;;;;;;19.81;59.80;102653.16;7361413;19;20014;-61
2022/07/07 08:12:08;;;;;;;0.00;0.00;;;;;;;19.79;59.90;102648.84;7363421;19;20476;-62
2022/07/07 08:14:34;;;;;;;0.00;0.00;;;;;;;19.93;59.16;102668.72;7364108;19;20066;-61
2022/07/07 08:16:59;;;;;;;0.10;0.10;;;;;;;19.98;59.56;102667.72;7359449;19;20022;-62
2022/07/07 08:19:24;;;;;;;0.10;0.10;;;;;;;20.04;59.34;102673.69;7356669;19;20364;-62
2022/07/07 08:21:51;;;;;;;0.10;0.10;;;;;;;20.08;58.40;102670.03;7359156;19;20018;-61
2022/07/07 08:24:16;;;;;;;0.10;0.10;;;;;;;20.02;58.30;102641.03;7360360;19;20018;-62
2022/07/07 08:26:42;;;;;;;0.00;0.00;;;;;;;20.18;58.87;102662.66;7357153;19;20018;-62
2022/07/07 08:29:07;;;;;;;0.10;0.10;;;;;;;20.24;59.38;102657.13;7356883;19;20466;-62
2022/07/07 08:31:33;;;;;;;0.10;0.10;;;;;;;20.33;59.21;102667.47;7360708;19;20029;-61
2022/07/07 08:33:58;;;;;;;0.00;0.00;;;;;;;20.32;59.04;102652.44;7360362;19;20123;-61
2022/07/07 08:36:24;;;;;;;0.00;0.00;;;;;;;20.49;59.33;102672.31;7363057;19;20121;-62
2022/07/07 08:38:49;;;;;;;0.10;0.10;;;;;;;20.56;58.53;102669.38;7357378;19;20007;-62
2022/07/07 08:41:16;;;;;;;0.10;0.10;;;;;;;20.66;58.17;102675.25;7353673;19;20023;-61
2022/07/07 08:43:41;;;;;;;0.10;0.10;;;;;;;20.71;58.31;102668.00;7362001;19;20017;-61
2022/07/07 08:46:08;;;;;;;0.00;0.00;;;;;;;20.76;58.65;102676.69;7358495;19;20463;-62
2022/07/07 08:48:34;;;;;;;0.10;0.10;;;;;;;20.78;57.83;102674.81;7359951;19;20018;-62
2022/07/07 08:51:01;;;;;;;0.10;0.10;;;;;;;20.79;57.56;102671.28;7357290;19;20444;-62
2022/07/07 08:53:32;;;;;;;0.10;0.10;;;;;;;20.76;58.08;102655.44;7357967;19;20011;-62
2022/07/07 08:55:59;;;;;;;0.05;0.05;;;;;;;20.78;58.70;102679.28;7357205;19;20003;-62
2022/07/07 08:58:24;;;;;;;0.10;0.10;;;;;;;20.73;57.99;102667.03;7359153;19;20109;-61
2022/07/07 09:00:52;;;;;;;0.10;0.10;;;;;;;20.80;58.51;102662.38;7359004;19;20043;-62
2022/07/07 09:03:18;;;;;;;0.10;0.10;;;;;;;20.78;58.82;102664.19;7358707;19;20022;-62
2022/07/07 09:05:44;;;;;;;0.00;0.00;;;;;;;20.80;58.19;102657.06;7360304;19;20011;-62
2022/07/07 09:08:20;;;;;;;0.10;0.10;;;;;;;20.80;58.37;102651.75;7363543;19;20051;-62
2022/07/07 09:10:46;;;;;;;0.10;0.10;;;;;;;20.77;58.31;102651.84;7364622;19;20007;-62
2022/07/07 09:13:32;;;;;;;0.00;0.00;;;;;;;20.88;58.28;102657.69;7363780;19;20014;-62
2022/07/07 09:16:03;;;;;;;0.10;0.10;;;;;;;20.87;57.95;102653.28;7262742;19;2004278;-62
2022/07/07 09:18:40;;;;;;;0.00;0.00;;;;;;;20.91;58.44;102648.72;7362499;19;20018;-62
2022/07/07 09:21:28;;;;;;;0.10;0.10;;;;;;;20.98;58.47;102656.44;7364100;19;20022;-62
2022/07/07 09:23:55;;;;;;;0.10;0.10;;;;;;;20.96;58.72;102658.25;7362498;19;20050;-62
2022/07/07 09:26:34;;;;;;;0.00;0.00;;;;;;;21.07;58.49;102662.34;7363613;19;20010;-62
2022/07/07 09:28:59;;;;;;;0.00;0.00;;;;;;;21.07;57.60;102670.31;7358696;19;20034;-62
2022/07/07 09:31:24;;;;;;;0.10;0.10;;;;;;;21.12;57.79;102674.53;7363076;19;20497;-62
2022/07/07 09:34:10;;;;;;;0.10;0.10;;;;;;;21.33;57.96;102672.91;7351917;19;20014;-62
2022/07/07 09:39:20;;;;;;;0.00;0.00;;;;;;;21.75;57.37;102683.75;7364102;19;20025;-62
2022/07/07 09:41:45;;;;;;;0.00;0.00;;;;;;;22.08;57.57;102682.50;7363791;19;21835;-62
2022/07/07 09:44:10;;;;;;;0.00;0.00;;;;;;;22.42;56.03;102682.06;7361899;19;20025;-61
2022/07/07 09:46:36;;;;;;;0.00;0.00;;;;;;;22.75;55.31;102679.75;7361466;19;20143;-62
2022/07/07 09:49:02;;;;;;;0.10;0.10;;;;;;;23.10;54.78;102686.28;7362898;19;20895;-62
2022/07/07 09:51:30;;;;;;;0.10;0.10;;;;;;;23.41;54.10;102674.25;7360955;19;20026;-62
2022/07/07 09:53:59;;;;;;;0.03;0.03;;;;;;;23.88;54.25;102673.91;7362248;19;20094;-62
2022/07/07 09:56:28;;;;;;;0.10;0.10;;;;;;;24.17;52.94;102659.97;7364103;19;20006;-62
2022/07/07 09:58:55;;;;;;;0.10;0.10;;;;;;;24.52;52.24;102665.41;7367514;19;20039;-62
2022/07/07 10:01:24;;;;;;;0.10;0.10;;;;;;;24.86;52.09;102659.22;7364259;19;20014;-62
2022/07/07 10:03:54;;;;;;;0.00;0.00;;;;;;;25.29;51.13;102668.56;7367889;19;20348;-62
2022/07/07 10:06:20;;;;;;;0.10;0.10;;;;;;;25.67;49.98;102672.78;7367591;19;20027;-62
2022/07/07 10:08:50;;;;;;;0.10;0.10;;;;;;;26.07;50.29;102674.13;7363345;19;20015;-62
2022/07/07 10:11:17;;;;;;;0.00;0.00;;;;;;;26.46;49.29;102668.31;7367557;19;20015;-62
2022/07/07 10:13:44;;;;;;;0.08;0.08;;;;;;;26.85;47.84;102673.09;7365169;19;20374;-63
2022/07/07 10:16:13;;;;;;;0.00;0.00;;;;;;;27.27;46.06;102684.00;7365415;19;20015;-62
2022/07/07 10:18:39;;;;;;;0.10;0.10;;;;;;;27.67;47.27;102688.59;7367306;19;20011;-62
2022/07/07 10:21:05;;;;;;;0.10;0.10;;;;;;;28.06;44.80;102687.00;7366213;19;20169;-62
2022/07/07 10:23:33;;;;;;;0.10;0.10;;;;;;;28.49;46.29;102689.59;7366387;19;20463;-62
2022/07/07 10:26:03;;;;;;;0.00;0.00;;;;;;;28.83;46.01;102693.50;7360916;19;20030;-62
2022/07/07 10:28:54;;;;;;;0.10;0.10;;;;;;;29.18;47.96;102691.09;7366815;19;20006;-62
2022/07/07 10:31:24;;;;;;;0.10;0.10;;;;;;;29.34;43.42;102684.63;7364752;19;20002;-62
2022/07/07 10:34:07;;;;;;;0.10;0.10;;;;;;;29.66;45.23;102688.63;7365530;19;20641;-62
2022/07/07 10:36:50;;;;;;;0.10;0.10;;;;;;;30.04;46.50;102694.88;7365598;19;20494;-62
2022/07/07 10:39:23;;;;;;;0.10;0.10;;;;;;;30.17;42.22;102687.63;7364896;19;20024;-63
2022/07/07 10:42:19;;;;;;;0.00;0.00;;;;;;;30.64;44.95;102681.31;7367441;19;20010;-62
2022/07/07 10:44:49;;;;;;;0.00;0.00;;;;;;;30.92;42.59;102695.41;7264332;19;2004475;-62
2022/07/07 10:47:14;;;;;;;0.00;0.00;;;;;;;31.16;40.80;102698.88;7364953;19;20014;-62
2022/07/07 10:49:52;;;;;;;0.10;0.10;;;;;;;31.58;41.42;102701.91;7366500;19;20044;-62
2022/07/07 10:52:41;;;;;;;0.00;0.00;;;;;;;32.07;42.74;102697.03;7364065;19;20017;-62
2022/07/07 10:55:07;;;;;;;0.08;0.08;;;;;;;32.22;39.41;102693.91;7365380;19;20010;-62
2022/07/07 10:57:41;;;;;;;0.00;0.00;;;;;;;32.72;40.55;102694.22;7365371;19;20119;-62
2022/07/07 11:00:14;;;;;;;0.00;0.00;;;;;;;32.95;38.45;102696.81;7366081;19;20010;-62
2022/07/07 11:02:42;;;;;;;0.10;0.10;;;;;;;33.34;38.63;102705.16;7364686;19;20572;-62
2022/07/07 11:05:13;;;;;;;0.00;0.00;;;;;;;33.68;38.26;102717.44;7363662;19;20023;-62
2022/07/07 11:07:40;;;;;;;0.00;0.00;;;;;;;33.67;34.43;102718.44;7364480;19;20724;-62
2022/07/07 11:10:08;;;;;;;;;;;;;;;33.94;41.59;102720.53;7365467;19;20134;-62
2022/07/07 11:12:34;;;;;;;0.10;0.10;;;;;;;33.62;35.41;102711.72;7366295;19;19919;-62
2022/07/07 11:15:17;;;;;;;0.10;0.10;;;;;;;33.63;38.86;102714.28;7366258;19;22656;-62
2022/07/07 11:17:44;;;;;;;0.10;0.10;;;;;;;33.42;35.48;102716.22;7362668;19;20469;-62
2022/07/07 11:20:17;;;;;;;0.10;0.10;;;;;;;33.52;37.41;102717.09;7365378;19;20022;-62
2022/07/07 11:22:48;;;;;;;0.00;0.00;;;;;;;33.57;38.08;102712.13;7363914;19;20029;-63
2022/07/07 11:25:17;;;;;;;0.00;0.00;;;;;;;33.56;36.67;102702.31;7362583;19;20041;-62